Pagina principale
METAR-TAF:

METAR-TAF

Aeroporti :

Aeroporto di Sármellék

Hévíz, Ungheria

latitudine: 46-41-11N, longitudine: 017-09-33E, altezza: 124 m

Osservazione

Il bollettino è stato emesso 31 minuti fa, alle 15:45 UTC
Vento 2 kt da est
Temperature 30°C
Umidità 40%
Pressione 1017 hPa
Visibilità 10 km o più
Poco nuvoloso ad un'altezza di 6000 ft, Cumulo congesto.

METAR: LHSM 181545Z 08002KT 9999 FEW060TCU 30/15 Q1017 NOSIG

Ora: 18:16 (16:16 UTC)

Previsione

Il bollettino è stato emesso 2 ore e 1 minuti fa, alle 14:15 UTC
Previsione valida dal 18 alle 15 UTC al 18 alle 24 UTC
Vento 3 kt da direzioni variabili
Visibilità 10 km o più
Poco nuvoloso ad un'altezza di 4000 ft, Cumulo congesto.
Evoluzione graduale
dal 18 alle 15 UTC al 18 alle 18 UTC
Visibilità 10 km o più
nessuna nube inferiore a 1500 m e nessun cumulonembo

TAF: LHSM 181415Z 1815/1824 VRB03KT 9999 FEW040TCU BECMG 1815/1818 CAVOK

Osservazioni e previsioni meteorologiche di più di 4000 aeroporti (messaggi METAR e TAF).

Le stazioni disponibili sono rappresentate dai dischi gialli e rossi sulla carta.

Puntare il mouse per vedere il nome della stazione.

Clicca sopra per visualizzare le osservazioni e previsioni meteorologiche.

Per cambiare la mappa : fare clic sui pulsanti verdi con una croce nera per ingrandire, il pulsante verde con un trattino per diminuire, o sulla freccia verde per le mappe adiacenti.


METAR-TAF: